createdAt,value
2022-12-27T00:02:04.878Z,8.24
2022-12-27T00:04:31.459Z,8.22
2022-12-27T00:06:57.946Z,8.19
2022-12-27T00:09:24.490Z,8.16
2022-12-27T00:11:56.337Z,8.26
2022-12-27T00:14:26.419Z,8.24
2022-12-27T00:16:52.981Z,8.13
2022-12-27T00:19:19.642Z,8.29
2022-12-27T00:21:46.121Z,8.25
2022-12-27T00:24:12.639Z,8.35
2022-12-27T00:26:39.461Z,8.23
2022-12-27T00:29:06.030Z,8.33
2022-12-27T00:31:33.048Z,8.39
2022-12-27T00:34:02.329Z,8.31
2022-12-27T00:36:31.529Z,8.26
2022-12-27T00:38:59.629Z,8.01
2022-12-27T00:41:26.995Z,7.92
2022-12-27T00:43:53.774Z,7.96
2022-12-27T00:46:22.485Z,7.90
2022-12-27T00:48:49.160Z,8.00
2022-12-27T00:51:20.241Z,7.87
2022-12-27T00:53:47.445Z,7.81
2022-12-27T00:56:20.353Z,7.83
2022-12-27T00:58:46.950Z,7.62
2022-12-27T01:01:18.898Z,7.55
2022-12-27T01:03:46.094Z,7.60
2022-12-27T01:06:15.858Z,7.48
2022-12-27T01:08:43.006Z,7.49
2022-12-27T01:11:11.080Z,7.46
2022-12-27T01:13:39.147Z,7.32
2022-12-27T01:16:14.713Z,7.47
2022-12-27T01:18:41.575Z,7.40
2022-12-27T01:21:10.037Z,7.42
2022-12-27T01:23:36.973Z,7.48
2022-12-27T01:26:06.429Z,7.43
2022-12-27T01:28:33.249Z,7.47
2022-12-27T01:31:08.598Z,7.33
2022-12-27T01:33:35.687Z,7.54
2022-12-27T01:36:14.048Z,7.42
2022-12-27T01:38:42.847Z,7.33
2022-12-27T01:41:33.832Z,7.31
2022-12-27T01:44:00.536Z,7.19
2022-12-27T01:46:28.981Z,7.27
2022-12-27T01:48:58.676Z,7.29
2022-12-27T01:51:25.767Z,7.10
2022-12-27T01:53:53.261Z,7.23
2022-12-27T01:56:31.339Z,7.35
2022-12-27T01:59:05.792Z,7.28
2022-12-27T02:01:43.074Z,7.36
2022-12-27T02:04:15.190Z,7.47
2022-12-27T02:06:43.194Z,7.48
2022-12-27T02:09:28.383Z,7.59
2022-12-27T02:11:57.181Z,7.62
2022-12-27T02:14:36.149Z,7.47
2022-12-27T02:17:06.610Z,7.57
2022-12-27T02:19:42.202Z,7.68
2022-12-27T02:22:11.525Z,7.69
2022-12-27T02:25:12.011Z,7.71
2022-12-27T02:27:51.825Z,7.69
2022-12-27T02:30:18.588Z,7.66
2022-12-27T02:32:54.466Z,7.59
2022-12-27T02:35:44.543Z,7.80
2022-12-27T02:38:18.825Z,7.82
2022-12-27T02:41:05.458Z,7.81
2022-12-27T02:43:51.472Z,7.97
2022-12-27T02:46:44.936Z,7.75
2022-12-27T02:49:49.812Z,7.84
2022-12-27T02:53:04.145Z,7.77
2022-12-27T02:56:09.376Z,7.68
2022-12-27T02:58:54.667Z,7.53
2022-12-27T03:01:55.802Z,7.52
2022-12-27T03:04:32.008Z,7.48
2022-12-27T03:07:04.835Z,7.26
2022-12-27T03:10:07.744Z,7.20
2022-12-27T03:13:13.819Z,7.16
2022-12-27T03:15:57.462Z,7.28
2022-12-27T03:18:42.849Z,7.18
2022-12-27T03:21:31.962Z,7.15
2022-12-27T03:24:20.376Z,7.03
2022-12-27T03:26:49.874Z,6.93
2022-12-27T03:29:38.322Z,6.95
2022-12-27T03:32:29.136Z,6.96
2022-12-27T03:35:07.683Z,6.89
2022-12-27T03:37:57.457Z,6.88
2022-12-27T03:40:34.628Z,6.81
2022-12-27T03:43:11.981Z,6.65
2022-12-27T03:46:23.339Z,6.71
2022-12-27T03:49:04.247Z,6.46
2022-12-27T03:51:37.411Z,6.35
2022-12-27T03:54:16.406Z,6.34
2022-12-27T03:56:42.996Z,6.31
2022-12-27T03:59:12.217Z,6.37
2022-12-27T04:01:39.194Z,6.30
2022-12-27T04:04:05.758Z,6.28
2022-12-27T04:06:32.481Z,6.19
2022-12-27T04:09:17.744Z,5.92
2022-12-27T04:12:02.665Z,5.90
2022-12-27T04:14:47.997Z,5.91
2022-12-27T04:17:34.928Z,5.84
2022-12-27T04:20:20.120Z,5.71
2022-12-27T04:23:05.578Z,5.64
2022-12-27T04:25:50.327Z,5.48
2022-12-27T04:28:35.338Z,5.55
2022-12-27T04:31:20.444Z,5.37
2022-12-27T04:34:05.556Z,5.29
2022-12-27T04:36:32.066Z,5.14
2022-12-27T04:38:58.559Z,5.24
2022-12-27T04:41:43.710Z,5.33
2022-12-27T04:44:28.501Z,5.28
2022-12-27T04:47:13.911Z,5.35
2022-12-27T04:49:59.278Z,5.58
2022-12-27T04:52:44.248Z,5.58
2022-12-27T04:55:22.353Z,5.57
2022-12-27T04:57:49.793Z,5.27
2022-12-27T05:00:35.886Z,5.07
2022-12-27T05:03:06.518Z,5.12
2022-12-27T05:05:35.396Z,4.96
2022-12-27T05:08:21.696Z,4.91
2022-12-27T05:11:07.021Z,4.74
2022-12-27T05:13:51.862Z,4.67
2022-12-27T05:16:18.483Z,4.63
2022-12-27T05:18:45.073Z,4.77
2022-12-27T05:21:11.646Z,4.74
2022-12-27T05:24:01.737Z,4.82
2022-12-27T05:26:32.194Z,4.97
2022-12-27T05:28:59.848Z,5.13
2022-12-27T05:31:28.709Z,4.97
2022-12-27T05:33:55.921Z,5.07
2022-12-27T05:36:23.013Z,4.85
2022-12-27T05:38:49.835Z,4.82
2022-12-27T05:41:16.497Z,4.64
2022-12-27T05:43:43.430Z,4.58
2022-12-27T05:46:14.618Z,4.54
2022-12-27T05:48:41.466Z,4.43
2022-12-27T05:51:10.920Z,4.43
2022-12-27T05:53:38.252Z,4.50
2022-12-27T05:56:04.919Z,4.67
2022-12-27T05:58:32.146Z,4.70
2022-12-27T06:00:59.961Z,4.87
2022-12-27T06:03:27.383Z,4.82
2022-12-27T06:06:00.128Z,4.85
2022-12-27T06:08:26.631Z,4.86
2022-12-27T06:11:02.629Z,4.97
2022-12-27T06:13:29.228Z,4.97
2022-12-27T06:15:58.452Z,4.92
2022-12-27T06:18:24.957Z,4.95
2022-12-27T06:20:51.474Z,5.00
2022-12-27T06:23:17.974Z,4.81
2022-12-27T06:25:44.459Z,4.84
2022-12-27T06:28:10.958Z,4.84
2022-12-27T06:30:37.471Z,4.96
2022-12-27T06:33:03.992Z,5.12
2022-12-27T06:35:30.476Z,5.18
2022-12-27T06:37:56.953Z,5.25
2022-12-27T06:40:23.444Z,5.29
2022-12-27T06:42:49.956Z,5.28
2022-12-27T06:45:16.521Z,5.19
2022-12-27T06:47:43.026Z,5.38
2022-12-27T06:50:11.740Z,5.35
2022-12-27T06:52:38.226Z,5.38
2022-12-27T06:55:05.186Z,5.25
2022-12-27T06:57:31.688Z,5.10
2022-12-27T06:59:58.201Z,4.97
2022-12-27T07:02:24.782Z,4.94
2022-12-27T07:04:51.338Z,4.83
2022-12-27T07:07:17.832Z,4.80
2022-12-27T07:09:46.561Z,4.80
2022-12-27T07:12:15.470Z,4.83
2022-12-27T07:14:45.008Z,4.74
2022-12-27T07:17:14.629Z,4.63
2022-12-27T07:19:44.163Z,4.73
2022-12-27T07:22:11.704Z,4.92
2022-12-27T07:24:38.214Z,4.88
2022-12-27T07:27:05.256Z,4.61
2022-12-27T07:29:31.809Z,4.68
2022-12-27T07:31:58.350Z,4.80
2022-12-27T07:34:26.113Z,4.80
2022-12-27T07:36:54.915Z,4.73
2022-12-27T07:39:21.385Z,4.82
2022-12-27T07:41:47.890Z,4.74
2022-12-27T07:44:14.388Z,4.80
2022-12-27T07:46:45.756Z,4.83
2022-12-27T07:49:17.934Z,4.74
2022-12-27T07:51:44.765Z,4.75
2022-12-27T07:54:15.072Z,4.80
2022-12-27T07:56:42.871Z,4.89
2022-12-27T07:59:14.515Z,4.95
2022-12-27T08:02:02.731Z,4.90
2022-12-27T08:04:30.045Z,4.85
2022-12-27T08:07:20.185Z,5.58
2022-12-27T08:09:48.615Z,6.92
2022-12-27T08:12:16.129Z,8.24
2022-12-27T08:14:43.805Z,9.32
2022-12-27T08:17:20.516Z,10.43
2022-12-27T08:19:47.222Z,11.14
2022-12-27T08:22:14.044Z,11.65
2022-12-27T08:24:42.737Z,12.02
2022-12-27T08:27:13.190Z,12.12
2022-12-27T08:29:42.421Z,12.05
2022-12-27T08:32:08.949Z,12.20
2022-12-27T08:34:35.448Z,12.32
2022-12-27T08:37:01.973Z,12.38
2022-12-27T08:39:30.023Z,12.44
2022-12-27T08:41:56.621Z,12.45
2022-12-27T08:44:23.838Z,12.14
2022-12-27T08:46:50.418Z,11.88
2022-12-27T08:49:16.920Z,12.01
2022-12-27T08:51:43.396Z,12.20
2022-12-27T08:54:12.459Z,12.42
2022-12-27T08:56:38.979Z,12.59
2022-12-27T08:59:05.571Z,12.74
2022-12-27T09:01:32.712Z,12.93
2022-12-27T09:03:59.545Z,13.11
2022-12-27T09:06:27.724Z,13.10
2022-12-27T09:08:56.004Z,12.90
2022-12-27T09:11:33.832Z,12.89
2022-12-27T09:14:03.225Z,12.96
2022-12-27T09:16:30.491Z,13.12
2022-12-27T09:18:59.237Z,13.25
2022-12-27T09:21:29.364Z,13.24
2022-12-27T09:23:56.248Z,13.26
2022-12-27T09:26:26.250Z,13.15
2022-12-27T09:28:54.187Z,13.10
2022-12-27T09:31:21.791Z,13.11
2022-12-27T09:33:48.485Z,13.35
2022-12-27T09:36:20.872Z,13.60
2022-12-27T09:38:48.560Z,13.64
2022-12-27T09:42:45.897Z,13.79
2022-12-27T09:44:58.301Z,13.92
2022-12-27T09:47:28.189Z,13.98
2022-12-27T09:50:03.331Z,13.57
2022-12-27T09:52:37.499Z,13.52
2022-12-27T09:55:23.696Z,13.46
2022-12-27T09:57:55.269Z,13.47
2022-12-27T10:00:34.419Z,13.06
2022-12-27T10:03:06.024Z,11.54
2022-12-27T10:05:36.441Z,10.55
2022-12-27T10:08:36.138Z,9.91
2022-12-27T10:11:37.231Z,9.87
2022-12-27T10:14:09.562Z,9.45
2022-12-27T10:17:12.798Z,9.14
2022-12-27T10:19:51.480Z,9.12
2022-12-27T10:22:33.757Z,9.11
2022-12-27T10:25:04.114Z,9.09
2022-12-27T10:27:31.833Z,8.82
2022-12-27T10:30:00.159Z,9.03
2022-12-27T10:32:27.322Z,9.27
2022-12-27T10:34:57.011Z,9.14
2022-12-27T10:37:23.788Z,9.59
2022-12-27T10:39:50.329Z,9.80
2022-12-27T10:42:45.502Z,9.93
2022-12-27T10:45:26.508Z,10.14
2022-12-27T10:47:56.177Z,10.28
2022-12-27T10:50:27.002Z,10.45
2022-12-27T10:52:57.503Z,10.78
2022-12-27T10:55:46.639Z,11.02
2022-12-27T10:58:32.624Z,11.21
2022-12-27T11:00:59.227Z,11.59
2022-12-27T11:03:26.700Z,11.57
2022-12-27T11:06:02.269Z,11.72
2022-12-27T11:08:30.078Z,11.91
2022-12-27T11:11:24.243Z,12.35
2022-12-27T11:13:51.708Z,12.88
2022-12-27T11:16:36.063Z,13.12
2022-12-27T11:19:04.227Z,13.44
2022-12-27T11:21:31.822Z,13.71
2022-12-27T11:24:01.372Z,13.94
2022-12-27T11:26:32.681Z,14.10
2022-12-27T11:29:03.681Z,14.46
2022-12-27T11:31:40.607Z,14.91
2022-12-27T11:34:16.782Z,15.27
2022-12-27T11:36:47.663Z,14.91
2022-12-27T11:39:44.590Z,15.28
2022-12-27T11:42:24.202Z,15.49
2022-12-27T11:45:05.015Z,15.61
2022-12-27T11:47:44.764Z,15.73
2022-12-27T11:50:26.514Z,15.45
2022-12-27T11:53:26.829Z,14.98
2022-12-27T11:56:13.935Z,14.54
2022-12-27T11:58:55.790Z,14.20
2022-12-27T12:01:50.088Z,13.90
2022-12-27T12:04:25.505Z,14.08
2022-12-27T12:07:27.786Z,14.57
2022-12-27T12:10:06.803Z,14.26
2022-12-27T12:12:58.370Z,14.16
2022-12-27T12:15:44.882Z,14.28
2022-12-27T12:18:18.057Z,14.35
2022-12-27T12:21:12.486Z,14.21
2022-12-27T12:23:57.296Z,13.82
2022-12-27T12:26:32.415Z,13.30
2022-12-27T12:29:13.927Z,13.03
2022-12-27T12:32:13.517Z,13.03
2022-12-27T12:35:18.223Z,12.82
2022-12-27T12:37:57.036Z,12.90
2022-12-27T12:40:42.669Z,13.19
2022-12-27T12:43:17.998Z,13.61
2022-12-27T12:46:15.778Z,14.05
2022-12-27T12:48:57.956Z,14.38
2022-12-27T12:51:43.190Z,14.48
2022-12-27T12:54:22.522Z,14.42
2022-12-27T12:57:07.540Z,14.17
2022-12-27T12:59:40.646Z,13.89
2022-12-27T13:02:32.261Z,13.41
2022-12-27T13:05:29.669Z,13.18
2022-12-27T13:08:05.398Z,13.01
2022-12-27T13:10:50.234Z,13.12
2022-12-27T13:13:36.426Z,13.36
2022-12-27T13:16:17.636Z,13.57
2022-12-27T13:19:06.824Z,13.58
2022-12-27T13:21:43.094Z,13.59
2022-12-27T13:24:33.426Z,13.68
2022-12-27T13:27:42.150Z,13.60
2022-12-27T13:30:21.464Z,13.61
2022-12-27T13:32:50.754Z,13.63
2022-12-27T13:35:20.541Z,13.34
2022-12-27T13:38:11.998Z,13.17
2022-12-27T13:41:11.562Z,12.92
2022-12-27T13:44:04.399Z,12.53
2022-12-27T13:47:01.367Z,12.52
2022-12-27T13:49:42.113Z,12.82
2022-12-27T13:52:16.456Z,13.02
2022-12-27T13:54:57.931Z,13.59
2022-12-27T13:57:58.233Z,13.92
2022-12-27T14:00:31.835Z,13.93
2022-12-27T14:03:23.091Z,13.76
2022-12-27T14:06:14.119Z,13.69
2022-12-27T14:09:05.331Z,13.34
2022-12-27T14:12:13.416Z,13.08
2022-12-27T14:14:44.704Z,12.87
2022-12-27T14:17:20.104Z,12.88
2022-12-27T14:20:04.971Z,12.78
2022-12-27T14:22:53.805Z,12.59
2022-12-27T14:25:52.100Z,12.47
2022-12-27T14:28:33.857Z,12.42
2022-12-27T14:31:14.743Z,12.33
2022-12-27T14:34:03.082Z,12.30
2022-12-27T14:36:35.625Z,12.24
2022-12-27T14:39:18.993Z,12.20
2022-12-27T14:42:19.459Z,12.24
2022-12-27T14:45:23.345Z,12.34
2022-12-27T14:48:24.217Z,12.39
2022-12-27T14:51:41.523Z,12.34
2022-12-27T14:54:46.737Z,12.28
2022-12-27T14:57:46.714Z,12.09
2022-12-27T15:00:28.298Z,11.91
2022-12-27T15:03:39.543Z,11.76
2022-12-27T15:06:18.440Z,11.74
2022-12-27T15:09:15.737Z,11.66
2022-12-27T15:11:56.685Z,11.57
2022-12-27T15:14:28.728Z,11.51
2022-12-27T15:17:27.975Z,11.50
2022-12-27T15:20:27.632Z,11.45
2022-12-27T15:23:15.812Z,11.46
2022-12-27T15:26:07.267Z,11.38
2022-12-27T15:28:55.396Z,11.39
2022-12-27T15:31:59.543Z,11.45
2022-12-27T15:35:06.758Z,11.30
2022-12-27T15:38:09.485Z,11.25
2022-12-27T15:40:39.548Z,11.34
2022-12-27T15:43:24.692Z,11.33
2022-12-27T15:46:09.364Z,11.30
2022-12-27T15:48:54.532Z,11.23
2022-12-27T15:51:27.070Z,11.18
2022-12-27T15:54:30.650Z,11.21
2022-12-27T15:57:18.609Z,11.06
2022-12-27T16:00:05.415Z,10.88
2022-12-27T16:02:37.552Z,10.69
2022-12-27T16:05:51.886Z,10.62
2022-12-27T16:08:25.959Z,10.44
2022-12-27T16:10:53.498Z,10.48
2022-12-27T16:13:27.632Z,10.37
2022-12-27T16:15:55.301Z,10.42
2022-12-27T16:18:24.848Z,10.40
2022-12-27T16:21:11.069Z,10.22
2022-12-27T16:23:46.648Z,10.33
2022-12-27T16:26:16.229Z,10.29
2022-12-27T16:29:05.812Z,10.31
2022-12-27T16:31:37.882Z,10.16
2022-12-27T16:34:30.309Z,10.25
2022-12-27T16:37:00.625Z,10.14
2022-12-27T16:39:45.089Z,10.19
2022-12-27T16:42:11.590Z,10.40
2022-12-27T16:44:57.458Z,10.38
2022-12-27T16:47:39.203Z,10.45
2022-12-27T16:50:25.942Z,10.39
2022-12-27T16:52:55.180Z,10.40
2022-12-27T16:55:40.708Z,10.35
2022-12-27T16:58:27.403Z,10.26
2022-12-27T17:00:56.606Z,10.18
2022-12-27T17:03:32.141Z,10.18
2022-12-27T17:09:06.333Z,10.10
2022-12-27T17:11:55.126Z,9.94
2022-12-27T17:14:31.789Z,9.83
2022-12-27T17:17:31.116Z,10.06
2022-12-27T17:20:01.912Z,9.96
2022-12-27T17:22:34.965Z,9.86
2022-12-27T17:25:03.404Z,9.79
2022-12-27T17:27:54.648Z,9.74
2022-12-27T17:30:23.676Z,9.47
2022-12-27T17:33:15.305Z,9.50
2022-12-27T17:35:50.846Z,9.34
2022-12-27T17:38:39.298Z,9.31
2022-12-27T17:41:52.061Z,9.12
2022-12-27T17:44:47.092Z,9.03
2022-12-27T17:47:26.003Z,8.91
2022-12-27T17:49:54.245Z,8.89
2022-12-27T17:52:44.692Z,8.84
2022-12-27T17:55:40.503Z,8.72
2022-12-27T17:58:17.349Z,8.68
2022-12-27T18:00:50.426Z,8.73
2022-12-27T18:03:17.779Z,8.62
2022-12-27T18:05:47.455Z,8.53
2022-12-27T18:08:24.767Z,8.72
2022-12-27T18:10:52.051Z,8.51
2022-12-27T18:13:26.467Z,8.50
2022-12-27T18:15:53.932Z,8.53
2022-12-27T18:18:29.820Z,8.42
2022-12-27T18:20:59.939Z,8.45
2022-12-27T18:23:26.943Z,8.44
2022-12-27T18:26:12.922Z,8.42
2022-12-27T18:28:48.611Z,8.14
2022-12-27T18:31:25.885Z,8.28
2022-12-27T18:34:03.500Z,8.33
2022-12-27T18:36:40.558Z,8.14
2022-12-27T18:39:19.508Z,8.26
2022-12-27T18:41:56.840Z,8.06
2022-12-27T18:44:49.812Z,8.08
2022-12-27T18:47:23.246Z,8.16
2022-12-27T18:50:00.186Z,8.03
2022-12-27T18:52:35.580Z,7.91
2022-12-27T18:55:17.048Z,7.67
2022-12-27T18:58:20.904Z,7.70
2022-12-27T19:01:28.247Z,7.89
2022-12-27T19:04:30.677Z,7.74
2022-12-27T19:07:29.241Z,7.36
2022-12-27T19:10:18.852Z,7.69
2022-12-27T19:12:47.724Z,7.51
2022-12-27T19:15:35.342Z,7.71
2022-12-27T19:18:05.699Z,7.69
2022-12-27T19:20:36.626Z,7.50
2022-12-27T19:23:07.718Z,7.38
2022-12-27T19:25:38.361Z,7.51
2022-12-27T19:28:11.824Z,7.56
2022-12-27T19:30:42.713Z,7.27
2022-12-27T19:33:18.081Z,7.38
2022-12-27T19:35:44.671Z,7.24
2022-12-27T19:38:23.238Z,7.31
2022-12-27T19:40:58.109Z,7.08
2022-12-27T19:43:41.666Z,7.27
2022-12-27T19:46:13.603Z,7.28
2022-12-27T19:48:40.303Z,7.32
2022-12-27T19:51:07.637Z,7.06
2022-12-27T19:53:38.342Z,7.18
2022-12-27T19:56:07.756Z,7.22
2022-12-27T19:58:34.849Z,7.02
2022-12-27T20:01:01.574Z,7.08
2022-12-27T20:03:28.275Z,7.05
2022-12-27T20:06:12.948Z,7.14
2022-12-27T20:08:45.682Z,6.97
2022-12-27T20:11:19.389Z,7.12
2022-12-27T20:13:50.880Z,7.10
2022-12-27T20:16:20.539Z,7.03
2022-12-27T20:18:48.770Z,6.80
2022-12-27T20:21:21.517Z,7.02
2022-12-27T20:23:50.194Z,6.90
2022-12-27T20:26:23.169Z,6.73
2022-12-27T20:28:53.388Z,6.86
2022-12-27T20:31:21.378Z,6.65
2022-12-27T20:33:55.328Z,6.74
2022-12-27T20:36:23.252Z,6.78
2022-12-27T20:38:53.098Z,6.81
2022-12-27T20:41:21.553Z,6.82
2022-12-27T20:43:56.063Z,6.79
2022-12-27T20:46:23.248Z,6.75
2022-12-27T20:48:55.395Z,6.84
2022-12-27T20:51:25.277Z,6.83
2022-12-27T20:54:02.425Z,6.58
2022-12-27T20:56:29.173Z,6.62
2022-12-27T20:58:55.767Z,6.45
2022-12-27T21:01:24.587Z,6.71
2022-12-27T21:03:51.541Z,6.75
2022-12-27T21:06:23.966Z,6.83
2022-12-27T21:08:56.568Z,6.71
2022-12-27T21:11:31.172Z,6.63
2022-12-27T21:13:59.499Z,6.38
2022-12-27T21:16:28.182Z,6.35
2022-12-27T21:18:55.671Z,6.26
2022-12-27T21:21:27.646Z,6.15
2022-12-27T21:23:56.352Z,6.16
2022-12-27T21:26:25.331Z,6.27
2022-12-27T21:28:52.155Z,6.10
2022-12-27T21:31:20.578Z,6.33
2022-12-27T21:33:48.522Z,6.15
2022-12-27T21:36:27.045Z,6.20
2022-12-27T21:38:54.741Z,6.22
2022-12-27T21:41:24.239Z,6.12
2022-12-27T21:43:54.183Z,5.93
2022-12-27T21:46:23.092Z,5.73
2022-12-27T21:49:03.169Z,6.41
2022-12-27T21:51:31.416Z,6.30
2022-12-27T21:53:58.500Z,6.09
2022-12-27T21:56:25.812Z,6.08
2022-12-27T21:58:55.568Z,6.06
2022-12-27T22:01:28.328Z,6.04
2022-12-27T22:03:56.432Z,6.19
2022-12-27T22:06:22.988Z,6.11
2022-12-27T22:08:55.856Z,6.14
2022-12-27T22:14:25.601Z,6.23
2022-12-27T22:16:53.001Z,6.01
2022-12-27T22:19:21.553Z,6.12
2022-12-27T22:21:48.040Z,6.21
2022-12-27T22:24:19.386Z,6.18
2022-12-27T22:26:52.832Z,6.31
2022-12-27T22:29:19.523Z,6.36
2022-12-27T22:31:46.618Z,6.26
2022-12-27T22:34:13.206Z,6.15
2022-12-27T22:36:39.792Z,6.17
2022-12-27T22:39:06.444Z,6.12
2022-12-27T22:41:35.345Z,6.40
2022-12-27T22:44:11.468Z,6.49
2022-12-27T22:47:06.802Z,6.29
2022-12-27T22:49:26.154Z,6.23
2022-12-27T22:51:56.913Z,6.04
2022-12-27T22:55:02.975Z,6.13
2022-12-27T22:57:13.980Z,6.09
2022-12-27T22:59:40.732Z,6.29
2022-12-27T23:02:07.759Z,6.11
2022-12-27T23:04:34.716Z,6.22
2022-12-27T23:07:02.423Z,5.98
2022-12-27T23:09:29.677Z,6.26
2022-12-27T23:11:56.362Z,6.30
2022-12-27T23:14:25.738Z,6.35
2022-12-27T23:16:59.949Z,6.51
2022-12-27T23:19:26.707Z,6.30
2022-12-27T23:21:55.321Z,6.23
2022-12-27T23:24:22.159Z,6.28
2022-12-27T23:26:49.261Z,6.02
2022-12-27T23:29:15.927Z,6.17
2022-12-27T23:31:54.053Z,6.07
2022-12-27T23:34:27.570Z,5.99
2022-12-27T23:36:56.857Z,6.09
2022-12-27T23:39:31.237Z,6.00
2022-12-27T23:41:57.751Z,5.94
2022-12-27T23:44:33.643Z,6.11
2022-12-27T23:47:05.390Z,6.02
2022-12-27T23:49:32.310Z,5.82
2022-12-27T23:51:58.899Z,5.90
2022-12-27T23:54:25.454Z,5.80
2022-12-27T23:56:51.979Z,5.89
2022-12-27T23:59:18.506Z,5.64
